Eships Dana — ZDJT6 — position and weather

sailwx.info

Track history (hours):
 
Tides and Currents Weather Stations Pressure Air Temp Water Temp Dewpoint Dewpoint Depression Visibility Wind Speed Wind Dir Waves Ship Positions

Eships Dana

Last reported at 2015-May-24 02:33 UTC. Time now 2015-May-24 03:15 UTC.
Position N 54°52' W 000°15'.

Length 116 m; draft 7.2 m.

Type: Tanker. MMSI: 236566000.

Date/timePositionNaut miles runAvg speedWind from/ knotsBaromVisibWave heightAir tempDewpointWater temp
2015-May-24 02:33N 54°52' W 000°15'1313.3
2015-May-24 01:33N 55°03' W 000°29'1313.3
2015-May-24 00:33N 55°13' W 000°43'1513.5
2015-May-23 23:24N 55°26' W 000°59'27 0.6
2015-May-22 05:32N 55°15' W 000°16'1512.8
2015-May-22 04:21N 55°05' E 000°05'5914.0
2015-May-22 00:10N 54°23' E 001°16'1114.1
2015-May-21 23:24N 54°15' E 001°28'12413.8
2015-May-21 14:25N 52°24' E 003°00'3013.6
2015-May-21 12:11N 52°06' E 003°40'812.2
2015-May-21 11:34N 52°02' E 003°51'1111.3
2015-May-21 10:33N 51°58' E 004°08'3 3.2
2015-May-21 09:32N 51°55' E 004°12'0 0.0
2015-May-21 08:26N 51°55' E 004°12'0 0.0
2015-May-21 07:29N 51°55' E 004°12'0 0.0
2015-May-21 06:32N 51°55' E 004°12'0 0.0
2015-May-21 05:26N 51°55' E 004°12'0 0.0
2015-May-21 04:29N 51°55' E 004°12'0 0.0
2015-May-21 03:32N 51°55' E 004°12'0 0.0
2015-May-21 02:23N 51°55' E 004°12'0 0.0
2015-May-21 01:11N 51°55' E 004°12'0 0.0
2015-May-21 00:29N 51°55' E 004°12'0 0.0
2015-May-20 23:32N 51°55' E 004°12'0 0.0
2015-May-20 22:26N 51°55' E 004°12'0 0.0
2015-May-20 21:32N 51°55' E 004°12'0 0.0
2015-May-20 20:32N 51°55' E 004°12'0 0.0
2015-May-20 19:26N 51°55' E 004°12'0 0.0
2015-May-20 18:23N 51°55' E 004°12'0 0.0
2015-May-20 17:32N 51°55' E 004°12'0 0.0
2015-May-20 16:32N 51°55' E 004°12'0 0.0
2015-May-20 15:29N 51°55' E 004°12'0 0.0
2015-May-20 14:29N 51°55' E 004°12'0 0.0
2015-May-20 13:29N 51°55' E 004°12'0 0.0
2015-May-20 12:32N 51°55' E 004°12'0 0.0
2015-May-20 11:17N 51°55' E 004°12'0 0.0
2015-May-20 10:29N 51°55' E 004°12'0 0.0
2015-May-20 09:26N 51°55' E 004°12'0 0.0
2015-May-20 08:14N 51°55' E 004°12'0 0.0
2015-May-20 07:29N 51°55' E 004°12'0 0.0
2015-May-20 06:32N 51°55' E 004°12'0 0.0
2015-May-20 05:26N 51°55' E 004°12'0 0.0
2015-May-20 04:20N 51°55' E 004°12'0 0.0
2015-May-20 03:32N 51°55' E 004°12'0 0.0
2015-May-20 02:32N 51°55' E 004°12'0 0.0
2015-May-20 01:32N 51°55' E 004°12'0 0.0
2015-May-20 00:29N 51°55' E 004°12'0 0.0
2015-May-19 23:11N 51°55' E 004°12'0 0.0
2015-May-19 22:26N 51°55' E 004°12'0 0.0
2015-May-19 21:29N 51°55' E 004°12'0 0.0
2015-May-19 20:26N 51°55' E 004°12'0 0.0
2015-May-19 19:26N 51°55' E 004°12'0 0.0
2015-May-19 18:26N 51°55' E 004°12'0 0.0
2015-May-19 17:29N 51°55' E 004°12'0 0.0
2015-May-19 16:32N 51°55' E 004°12'0 0.0
2015-May-19 15:23N 51°55' E 004°12'1 1.2
2015-May-19 14:33N 51°56' E 004°11'7 7.5
2015-May-19 13:33N 51°60' E 004°01'1010.4
2015-May-19 12:33N 52°02' E 003°44'6 4.7
2015-May-19 11:14N 52°08' E 003°39'0 0.1
2015-May-19 10:29N 52°08' E 003°39'0 0.0
2015-May-19 06:17N 52°08' E 003°39'1 0.2
2015-May-19 03:28N 52°08' E 003°38'8 7.1
2015-May-19 02:24N 52°08' E 003°26'  
2015-May-14 10:19N 56°02' W 001°58'1514.0
2015-May-14 09:14N 55°55' W 001°34'8014.2
2015-May-14 03:33N 54°50' W 000°10'  
Track history (hours):
 
Tides and Currents Weather Stations Pressure Air Temp Water Temp Dewpoint Dewpoint Depression Visibility Wind Speed Wind Dir Waves Ship Positions

Eships Dana

Last reported at 2015-May-24 02:33 UTC. Time now 2015-May-24 03:15 UTC.
Position N 54°52' W 000°15'.

Length 116 m; draft 7.2 m.

Type: Tanker. MMSI: 236566000.

Date/timePositionNaut miles runAvg speedWind from/ knotsBaromVisibWave heightAir tempDewpointWater temp
2015-May-24 02:33N 54°52' W 000°15'1313.3
2015-May-24 01:33N 55°03' W 000°29'1313.3
2015-May-24 00:33N 55°13' W 000°43'1513.5
2015-May-23 23:24N 55°26' W 000°59'27 0.6
2015-May-22 05:32N 55°15' W 000°16'1512.8
2015-May-22 04:21N 55°05' E 000°05'5914.0
2015-May-22 00:10N 54°23' E 001°16'1114.1
2015-May-21 23:24N 54°15' E 001°28'12413.8
2015-May-21 14:25N 52°24' E 003°00'3013.6
2015-May-21 12:11N 52°06' E 003°40'812.2
2015-May-21 11:34N 52°02' E 003°51'1111.3
2015-May-21 10:33N 51°58' E 004°08'3 3.2
2015-May-21 09:32N 51°55' E 004°12'0 0.0
2015-May-21 08:26N 51°55' E 004°12'0 0.0
2015-May-21 07:29N 51°55' E 004°12'0 0.0
2015-May-21 06:32N 51°55' E 004°12'0 0.0
2015-May-21 05:26N 51°55' E 004°12'0 0.0
2015-May-21 04:29N 51°55' E 004°12'0 0.0
2015-May-21 03:32N 51°55' E 004°12'0 0.0
2015-May-21 02:23N 51°55' E 004°12'0 0.0
2015-May-21 01:11N 51°55' E 004°12'0 0.0
2015-May-21 00:29N 51°55' E 004°12'0 0.0
2015-May-20 23:32N 51°55' E 004°12'0 0.0
2015-May-20 22:26N 51°55' E 004°12'0 0.0
2015-May-20 21:32N 51°55' E 004°12'0 0.0
2015-May-20 20:32N 51°55' E 004°12'0 0.0
2015-May-20 19:26N 51°55' E 004°12'0 0.0
2015-May-20 18:23N 51°55' E 004°12'0 0.0
2015-May-20 17:32N 51°55' E 004°12'0 0.0
2015-May-20 16:32N 51°55' E 004°12'0 0.0
2015-May-20 15:29N 51°55' E 004°12'0 0.0
2015-May-20 14:29N 51°55' E 004°12'0 0.0
2015-May-20 13:29N 51°55' E 004°12'0 0.0
2015-May-20 12:32N 51°55' E 004°12'0 0.0
2015-May-20 11:17N 51°55' E 004°12'0 0.0
2015-May-20 10:29N 51°55' E 004°12'0 0.0
2015-May-20 09:26N 51°55' E 004°12'0 0.0
2015-May-20 08:14N 51°55' E 004°12'0 0.0
2015-May-20 07:29N 51°55' E 004°12'0 0.0
2015-May-20 06:32N 51°55' E 004°12'0 0.0
2015-May-20 05:26N 51°55' E 004°12'0 0.0
2015-May-20 04:20N 51°55' E 004°12'0 0.0
2015-May-20 03:32N 51°55' E 004°12'0 0.0
2015-May-20 02:32N 51°55' E 004°12'0 0.0
2015-May-20 01:32N 51°55' E 004°12'0 0.0
2015-May-20 00:29N 51°55' E 004°12'0 0.0
2015-May-19 23:11N 51°55' E 004°12'0 0.0
2015-May-19 22:26N 51°55' E 004°12'0 0.0
2015-May-19 21:29N 51°55' E 004°12'0 0.0
2015-May-19 20:26N 51°55' E 004°12'0 0.0
2015-May-19 19:26N 51°55' E 004°12'0 0.0
2015-May-19 18:26N 51°55' E 004°12'0 0.0
2015-May-19 17:29N 51°55' E 004°12'0 0.0
2015-May-19 16:32N 51°55' E 004°12'0 0.0
2015-May-19 15:23N 51°55' E 004°12'1 1.2
2015-May-19 14:33N 51°56' E 004°11'7 7.5
2015-May-19 13:33N 51°60' E 004°01'1010.4
2015-May-19 12:33N 52°02' E 003°44'6 4.7
2015-May-19 11:14N 52°08' E 003°39'0 0.1
2015-May-19 10:29N 52°08' E 003°39'0 0.0
2015-May-19 06:17N 52°08' E 003°39'1 0.2
2015-May-19 03:28N 52°08' E 003°38'8 7.1
2015-May-19 02:24N 52°08' E 003°26'  
2015-May-14 10:19N 56°02' W 001°58'1514.0
2015-May-14 09:14N 55°55' W 001°34'8014.2
2015-May-14 03:33N 54°50' W 000°10'  

Dump ship's entire track history